MATER UKLL (LWO)

Остані дані METAR із Аеропорта UKLL (LWO)

L'Viv, Ukraine (UKLL) 49-49N 023-57E 323M
Nov 13, 2019 - 03:30 PM EST / 2019.11.13 2030 UTC
Wind: from the SSE (150 degrees) at 16 MPH (14 KT):0
Visibility: greater than 7 mile(s):0
Temperature: 55 F (13 C)
Dew Point: 50 F (10 C)
Relative Humidity: 81%
Pressure (altimeter): 29.71 in. Hg (1006 hPa)
ob: UKLL 132030Z 15007MPS CAVOK 13/10 Q1006 R13/CLRD// TEMPO 15009G16MPS
cycle: 20